createdAt,value
2022-08-07T00:00:33.490Z,100104.03
2022-08-07T00:03:01.332Z,100087.28
2022-08-07T00:05:38.550Z,100090.91
2022-08-07T00:08:08.039Z,100066.16
2022-08-07T00:10:48.184Z,100062.34
2022-08-07T00:13:30.662Z,100079.09
2022-08-07T00:16:03.399Z,100072.88
2022-08-07T00:18:31.895Z,100064.16
2022-08-07T00:21:56.911Z,100048.94
2022-08-07T00:24:02.544Z,100062.22
2022-08-07T00:26:59.065Z,100069.25
2022-08-07T00:29:26.427Z,100066.22
2022-08-07T00:31:59.955Z,100054.53
2022-08-07T00:34:30.676Z,100067.59
2022-08-07T00:37:02.541Z,100068.25
2022-08-07T00:39:54.262Z,100042.81
2022-08-07T00:42:28.997Z,100040.78
2022-08-07T00:44:57.967Z,100052.84
2022-08-07T00:48:07.978Z,100085.50
2022-08-07T00:50:33.071Z,100055.38
2022-08-07T00:53:09.206Z,100067.91
2022-08-07T00:56:02.139Z,100066.22
2022-08-07T00:58:32.957Z,100073.63
2022-08-07T01:01:04.383Z,100058.19
2022-08-07T01:03:56.379Z,100086.69
2022-08-07T01:06:23.218Z,100057.69
2022-08-07T01:08:55.730Z,100061.88
2022-08-07T01:12:09.982Z,100063.91
2022-08-07T01:14:28.740Z,100051.81
2022-08-07T01:17:00.543Z,100038.94
2022-08-07T01:19:34.258Z,100050.81
2022-08-07T01:22:22.777Z,100064.53
2022-08-07T01:25:00.976Z,100069.25
2022-08-07T01:27:39.428Z,100082.69
2022-08-07T01:30:21.842Z,100082.81
2022-08-07T01:33:02.264Z,100059.38
2022-08-07T01:35:52.788Z,100057.03
2022-08-07T01:38:25.769Z,100071.13
2022-08-07T01:41:03.988Z,100066.72
2022-08-07T01:43:38.388Z,100080.94
2022-08-07T01:46:23.034Z,100045.97
2022-08-07T01:49:00.122Z,100054.84
2022-08-07T01:52:03.277Z,100047.47
2022-08-07T01:54:32.856Z,100064.88
2022-08-07T01:57:24.910Z,100052.81
2022-08-07T02:00:00.648Z,100080.16
2022-08-07T02:03:18.877Z,100063.03
2022-08-07T02:06:02.026Z,100047.81
2022-08-07T02:08:41.750Z,100068.91
2022-08-07T02:11:31.010Z,100074.25
2022-08-07T02:14:06.661Z,100059.19
2022-08-07T02:16:50.781Z,100058.66
2022-08-07T02:20:07.790Z,100074.19
2022-08-07T02:22:15.381Z,100079.22
2022-08-07T02:24:47.720Z,100057.44
2022-08-07T02:27:23.313Z,100033.00
2022-08-07T02:29:58.661Z,100043.22
2022-08-07T02:32:59.994Z,100047.41
2022-08-07T02:36:28.290Z,100057.31
2022-08-07T02:38:22.720Z,100065.81
2022-08-07T02:40:59.996Z,100063.50
2022-08-07T02:43:35.139Z,100041.03
2022-08-07T02:46:07.897Z,100054.78
2022-08-07T02:48:47.063Z,100053.78
2022-08-07T02:51:42.206Z,100049.06
2022-08-07T02:54:13.772Z,100064.66
2022-08-07T02:56:53.492Z,100048.59
2022-08-07T02:59:41.558Z,100053.44
2022-08-07T03:02:17.899Z,100053.75
2022-08-07T03:04:53.750Z,100046.06
2022-08-07T03:07:42.953Z,100047.75
2022-08-07T03:10:36.829Z,100063.16
2022-08-07T03:13:13.003Z,100056.78
2022-08-07T03:15:56.716Z,100053.94
2022-08-07T03:19:37.095Z,100078.41
2022-08-07T03:22:04.868Z,100085.75
2022-08-07T03:24:52.403Z,100078.56
2022-08-07T03:27:59.574Z,100068.16
2022-08-07T03:30:33.288Z,100059.13
2022-08-07T03:33:10.456Z,100057.09
2022-08-07T03:35:53.631Z,100065.50
2022-08-07T03:38:45.394Z,100065.50
2022-08-07T03:41:41.658Z,100039.22
2022-08-07T03:44:35.446Z,100055.63
2022-08-07T03:47:15.802Z,100053.31
2022-08-07T03:49:53.597Z,100059.50
2022-08-07T03:52:30.036Z,100042.94
2022-08-07T03:55:20.311Z,100047.13
2022-08-07T03:58:32.978Z,100046.63
2022-08-07T04:00:53.345Z,100042.28
2022-08-07T04:03:49.629Z,100075.25
2022-08-07T04:06:37.050Z,100070.56
2022-08-07T04:09:25.130Z,100046.81
2022-08-07T04:12:25.604Z,100050.53
2022-08-07T04:15:05.101Z,100067.25
2022-08-07T04:18:57.462Z,100068.59
2022-08-07T04:21:25.542Z,100049.50
2022-08-07T04:24:26.890Z,100040.09
2022-08-07T04:27:15.155Z,100046.28
2022-08-07T04:30:04.717Z,100089.63
2022-08-07T04:33:07.374Z,100064.31
2022-08-07T04:35:50.181Z,100052.59
2022-08-07T04:38:30.026Z,100056.03
2022-08-07T04:41:03.766Z,100064.03
2022-08-07T04:44:16.032Z,100050.09
2022-08-07T04:47:57.159Z,100059.09
2022-08-07T04:50:25.755Z,100073.59
2022-08-07T04:54:05.842Z,100063.22
2022-08-07T04:58:27.463Z,100062.28
2022-08-07T05:00:56.107Z,100084.00
2022-08-07T05:04:07.064Z,100063.56
2022-08-07T05:07:19.640Z,100078.19
2022-08-07T05:11:02.999Z,100049.53
2022-08-07T05:14:53.190Z,100064.94
2022-08-07T05:17:01.532Z,100073.59
2022-08-07T05:19:45.114Z,100055.16
2022-08-07T05:22:27.626Z,100061.94
2022-08-07T05:25:03.423Z,100059.94
2022-08-07T05:32:20.482Z,100045.63
2022-08-07T05:36:07.084Z,100057.50
2022-08-07T05:38:58.104Z,100040.25
2022-08-07T05:41:22.524Z,100045.00
2022-08-07T05:44:11.887Z,100052.94
2022-08-07T05:46:52.831Z,100053.81
2022-08-07T05:49:41.000Z,100047.69
2022-08-07T05:52:32.614Z,100042.47
2022-08-07T06:11:53.779Z,100056.47
2022-08-07T06:25:36.073Z,100081.22
2022-08-07T07:04:56.335Z,100088.59
2022-08-07T07:48:46.307Z,100083.28
2022-08-07T08:07:59.915Z,100066.69
2022-08-07T08:50:08.135Z,100047.84
2022-08-07T09:05:07.022Z,100035.00
2022-08-07T09:08:46.946Z,100039.41
2022-08-07T09:12:41.481Z,100031.31
2022-08-07T11:04:49.984Z,99930.19
2022-08-07T12:28:03.951Z,100015.16
2022-08-07T12:52:13.808Z,100087.25
2022-08-07T14:10:31.746Z,100117.25
2022-08-07T14:55:55.862Z,100113.25
2022-08-07T16:30:07.734Z,100121.69
2022-08-07T16:47:05.594Z,100186.78
2022-08-07T16:50:52.809Z,100182.78
2022-08-07T16:59:45.995Z,100192.41
2022-08-07T17:07:28.558Z,100200.88
2022-08-07T17:20:00.690Z,100188.69
2022-08-07T17:23:48.115Z,100207.59
2022-08-07T17:31:16.079Z,100174.25
2022-08-07T17:42:33.825Z,100213.66
2022-08-07T17:52:12.903Z,100204.78
2022-08-07T18:02:39.741Z,100214.66
2022-08-07T18:06:02.744Z,100217.69
2022-08-07T18:09:15.956Z,100228.06
2022-08-07T18:12:28.700Z,100203.59
2022-08-07T18:21:38.365Z,100233.06
2022-08-07T18:24:12.375Z,100247.31
2022-08-07T18:40:38.583Z,100243.03
2022-08-07T18:50:04.701Z,100261.81
2022-08-07T18:52:55.633Z,100254.94
2022-08-07T19:00:36.522Z,100256.03
2022-08-07T19:12:48.829Z,100260.19
2022-08-07T19:16:05.779Z,100278.16
2022-08-07T19:18:49.366Z,100266.72
2022-08-07T19:22:04.693Z,100290.56
2022-08-07T19:24:52.462Z,100258.72
2022-08-07T19:36:13.124Z,100246.28
2022-08-07T19:39:56.966Z,100279.50
2022-08-07T19:43:00.583Z,100258.16
2022-08-07T19:46:05.959Z,100255.81
2022-08-07T19:49:57.209Z,100252.31
2022-08-07T19:52:22.536Z,100256.16
2022-08-07T19:54:58.209Z,100258.56
2022-08-07T19:58:15.849Z,100259.91
2022-08-07T20:00:55.569Z,100275.84
2022-08-07T20:03:33.672Z,100266.97
2022-08-07T20:06:15.449Z,100244.19
2022-08-07T20:09:03.039Z,100266.53
2022-08-07T20:15:57.592Z,100267.31
2022-08-07T20:18:35.711Z,100238.53
2022-08-07T20:21:21.422Z,100252.78
2022-08-07T20:24:06.232Z,100275.75
2022-08-07T20:26:52.403Z,100279.44
2022-08-07T20:30:00.196Z,100295.66
2022-08-07T20:32:52.846Z,100282.28
2022-08-07T20:35:36.585Z,100275.16
2022-08-07T20:39:11.702Z,100290.81
2022-08-07T20:41:54.332Z,100299.75
2022-08-07T20:44:31.724Z,100279.59
2022-08-07T20:47:11.299Z,100278.41
2022-08-07T20:49:59.336Z,100269.28
2022-08-07T20:52:51.232Z,100274.94
2022-08-07T20:55:25.529Z,100279.53
2022-08-07T20:58:03.369Z,100263.28
2022-08-07T21:00:42.170Z,100244.84
2022-08-07T21:03:16.600Z,100250.00
2022-08-07T21:06:21.577Z,100252.66
2022-08-07T21:09:07.551Z,100269.97
2022-08-07T21:11:53.315Z,100264.78
2022-08-07T21:14:32.884Z,100269.75
2022-08-07T21:18:01.876Z,100249.91
2022-08-07T21:20:10.050Z,100263.81
2022-08-07T21:22:53.247Z,100246.91
2022-08-07T21:25:39.262Z,100225.50
2022-08-07T21:28:19.019Z,100255.81
2022-08-07T21:31:49.555Z,100284.16
2022-08-07T21:34:34.642Z,100277.28
2022-08-07T21:37:26.447Z,100285.00
2022-08-07T21:40:39.816Z,100272.56
2022-08-07T21:43:22.801Z,100277.06
2022-08-07T21:46:32.275Z,100305.69
2022-08-07T21:49:18.427Z,100288.84
2022-08-07T21:52:14.214Z,100270.75
2022-08-07T21:55:00.893Z,100290.50
2022-08-07T21:57:52.336Z,100292.66
2022-08-07T22:00:25.478Z,100306.28
2022-08-07T22:03:16.817Z,100303.44
2022-08-07T22:05:51.885Z,100302.91
2022-08-07T22:13:03.727Z,100274.44
2022-08-07T22:16:42.806Z,100285.16
2022-08-07T22:19:08.776Z,100293.34
2022-08-07T22:22:02.291Z,100292.19
2022-08-07T22:24:56.789Z,100308.22
2022-08-07T22:28:03.229Z,100316.34
2022-08-07T22:30:26.454Z,100309.34
2022-08-07T22:33:09.219Z,100317.44
2022-08-07T22:35:57.782Z,100305.78
2022-08-07T22:38:53.079Z,100287.69
2022-08-07T22:42:03.196Z,100273.38
2022-08-07T22:44:29.075Z,100324.72
2022-08-07T22:47:17.024Z,100296.88
2022-08-07T22:49:54.849Z,100304.16
2022-08-07T22:52:37.577Z,100307.66
2022-08-07T22:55:29.702Z,100310.88
2022-08-07T22:58:08.681Z,100296.16
2022-08-07T23:00:53.072Z,100312.25
2022-08-07T23:03:58.529Z,100298.97
2022-08-07T23:06:52.046Z,100307.78
2022-08-07T23:10:05.191Z,100315.00
2022-08-07T23:12:34.449Z,100296.38
2022-08-07T23:16:06.991Z,100314.03
2022-08-07T23:19:15.777Z,100309.59
2022-08-07T23:21:55.310Z,100292.72
2022-08-07T23:24:50.482Z,100320.72
2022-08-07T23:27:33.606Z,100318.63
2022-08-07T23:30:39.357Z,100304.19
2022-08-07T23:34:34.749Z,100310.72
2022-08-07T23:36:30.309Z,100312.91
2022-08-07T23:39:21.946Z,100331.56
2022-08-07T23:42:24.004Z,100320.88
2022-08-07T23:45:50.189Z,100303.91
2022-08-07T23:48:37.782Z,100318.97
2022-08-07T23:52:59.919Z,100329.81
2022-08-07T23:55:04.670Z,100330.09
2022-08-07T23:57:44.794Z,100306.41
